createdAt,value
2023-05-22T00:01:07.913Z,20.67
2023-05-22T00:03:37.086Z,20.75
2023-05-22T00:06:06.725Z,20.79
2023-05-22T00:08:34.992Z,20.67
2023-05-22T00:11:04.773Z,20.60
2023-05-22T00:13:32.936Z,20.52
2023-05-22T00:16:01.307Z,20.45
2023-05-22T00:18:38.918Z,20.60
2023-05-22T00:21:07.755Z,20.57
2023-05-22T00:23:35.888Z,20.61
2023-05-22T00:26:05.495Z,20.54
2023-05-22T00:28:33.751Z,20.45
2023-05-22T00:31:02.439Z,20.46
2023-05-22T00:33:31.066Z,20.40
2023-05-22T00:35:59.988Z,20.47
2023-05-22T00:38:37.893Z,20.43
2023-05-22T00:41:08.801Z,20.45
2023-05-22T00:43:36.975Z,20.48
2023-05-22T00:46:05.210Z,20.45
2023-05-22T00:48:33.695Z,20.41
2023-05-22T00:51:05.284Z,20.45
2023-05-22T00:53:33.685Z,20.48
2023-05-22T00:56:02.803Z,20.40
2023-05-22T00:58:33.209Z,20.45
2023-05-22T01:01:02.339Z,20.51
2023-05-22T01:03:32.422Z,20.57
2023-05-22T01:06:01.504Z,20.57
2023-05-22T01:08:29.703Z,20.49
2023-05-22T01:11:06.273Z,20.47
2023-05-22T01:13:46.354Z,20.32
2023-05-22T01:16:25.280Z,20.50
2023-05-22T01:19:02.953Z,20.51
2023-05-22T01:21:38.588Z,20.53
2023-05-22T01:24:35.701Z,20.38
2023-05-22T01:27:36.184Z,20.59
2023-05-22T01:30:21.926Z,20.38
2023-05-22T01:32:56.776Z,20.44
2023-05-22T01:35:26.561Z,20.54
2023-05-22T01:37:56.514Z,20.57
2023-05-22T01:40:28.277Z,20.53
2023-05-22T01:42:57.041Z,20.53
2023-05-22T01:45:25.502Z,20.54
2023-05-22T01:47:55.673Z,20.47
2023-05-22T01:50:24.367Z,20.48
2023-05-22T01:52:59.977Z,20.40
2023-05-22T01:55:36.338Z,20.42
2023-05-22T01:58:13.966Z,20.45
2023-05-22T02:00:46.031Z,20.43
2023-05-22T02:03:19.003Z,20.43
2023-05-22T02:05:53.158Z,20.47
2023-05-22T02:08:22.433Z,20.42
2023-05-22T02:10:52.858Z,20.38
2023-05-22T02:13:21.139Z,20.46
2023-05-22T02:15:49.894Z,20.37
2023-05-22T02:18:19.576Z,20.31
2023-05-22T02:20:48.004Z,20.37
2023-05-22T02:23:16.505Z,20.44
2023-05-22T02:25:47.427Z,20.46
2023-05-22T02:28:15.966Z,20.57
2023-05-22T02:30:44.485Z,20.46
2023-05-22T02:33:12.847Z,20.60
2023-05-22T02:35:42.592Z,20.57
2023-05-22T02:38:10.807Z,20.72
2023-05-22T02:40:39.507Z,20.63
2023-05-22T02:43:08.769Z,20.65
2023-05-22T02:45:37.393Z,20.60
2023-05-22T02:48:06.500Z,20.55
2023-05-22T02:50:34.710Z,20.54
2023-05-22T02:53:04.358Z,20.63
2023-05-22T02:55:32.616Z,20.48
2023-05-22T02:58:01.059Z,20.66
2023-05-22T03:00:29.949Z,20.77
2023-05-22T03:03:00.162Z,20.76
2023-05-22T03:05:28.696Z,20.84
2023-05-22T03:07:57.606Z,20.81
2023-05-22T03:10:27.653Z,20.85
2023-05-22T03:12:55.944Z,20.86
2023-05-22T03:15:24.186Z,20.96
2023-05-22T03:17:52.442Z,20.84
2023-05-22T03:20:23.748Z,20.91
2023-05-22T03:22:52.003Z,21.00
2023-05-22T03:25:22.010Z,21.01
2023-05-22T03:27:51.766Z,21.04
2023-05-22T03:30:20.268Z,21.11
2023-05-22T03:32:50.617Z,21.08
2023-05-22T03:35:20.489Z,21.14
2023-05-22T03:37:48.957Z,21.20
2023-05-22T03:40:17.388Z,21.19
2023-05-22T03:42:45.488Z,21.12
2023-05-22T03:45:15.202Z,21.12
2023-05-22T03:47:43.569Z,21.11
2023-05-22T03:50:12.638Z,21.07
2023-05-22T03:52:41.242Z,21.01
2023-05-22T03:55:11.059Z,21.07
2023-05-22T03:57:39.156Z,20.90
2023-05-22T04:00:10.065Z,20.95
2023-05-22T04:02:40.076Z,20.98
2023-05-22T04:05:11.164Z,20.91
2023-05-22T04:07:39.392Z,21.11
2023-05-22T04:10:08.463Z,21.13
2023-05-22T04:12:36.731Z,21.10
2023-05-22T04:15:05.298Z,21.02
2023-05-22T04:17:34.317Z,20.99
2023-05-22T04:20:05.391Z,21.10
2023-05-22T04:22:33.782Z,21.05
2023-05-22T04:25:02.310Z,20.93
2023-05-22T04:27:30.751Z,21.04
2023-05-22T04:30:00.120Z,21.13
2023-05-22T04:32:29.978Z,21.16
2023-05-22T04:35:00.954Z,21.08
2023-05-22T04:37:31.831Z,21.07
2023-05-22T04:40:06.166Z,21.15
2023-05-22T04:42:34.676Z,21.17
2023-05-22T04:45:02.786Z,21.25
2023-05-22T04:47:31.943Z,21.28
2023-05-22T04:50:02.613Z,21.13
2023-05-22T04:52:32.390Z,20.91
2023-05-22T04:55:01.501Z,20.86
2023-05-22T04:57:30.774Z,20.92
2023-05-22T04:59:59.072Z,20.99
2023-05-22T05:02:27.435Z,21.09
2023-05-22T05:04:56.233Z,21.13
2023-05-22T05:07:25.672Z,21.18
2023-05-22T05:09:55.088Z,21.28
2023-05-22T05:12:23.605Z,21.39
2023-05-22T05:14:51.784Z,21.36
2023-05-22T05:17:19.885Z,21.30
2023-05-22T05:19:48.282Z,21.45
2023-05-22T05:22:17.033Z,21.44
2023-05-22T05:24:45.115Z,21.37
2023-05-22T05:27:16.484Z,21.40
2023-05-22T05:29:44.832Z,21.28
2023-05-22T05:32:14.138Z,21.52
2023-05-22T05:34:42.573Z,21.57
2023-05-22T05:37:10.870Z,21.58
2023-05-22T05:39:39.733Z,21.62
2023-05-22T05:42:08.386Z,21.70
2023-05-22T05:44:38.433Z,21.78
2023-05-22T05:47:07.290Z,21.74
2023-05-22T05:49:35.946Z,21.73
2023-05-22T05:52:05.295Z,21.93
2023-05-22T05:54:33.377Z,21.96
2023-05-22T05:57:01.867Z,22.02
2023-05-22T05:59:33.144Z,21.84
2023-05-22T06:02:02.819Z,21.96
2023-05-22T06:04:31.082Z,21.91
2023-05-22T06:07:01.997Z,22.02
2023-05-22T06:09:33.060Z,22.23
2023-05-22T06:12:04.619Z,22.40
2023-05-22T06:14:33.449Z,22.54
2023-05-22T06:17:03.247Z,22.74
2023-05-22T06:19:34.174Z,22.72
2023-05-22T06:22:02.645Z,22.74
2023-05-22T06:24:34.015Z,22.71
2023-05-22T06:27:05.878Z,22.81
2023-05-22T06:29:34.180Z,23.01
2023-05-22T06:32:05.314Z,22.81
2023-05-22T06:34:33.706Z,22.98
2023-05-22T06:37:03.799Z,23.09
2023-05-22T06:39:34.986Z,23.14
2023-05-22T06:42:03.378Z,23.22
2023-05-22T06:44:32.039Z,23.28
2023-05-22T06:47:00.858Z,23.38
2023-05-22T06:49:32.498Z,23.41
2023-05-22T06:52:05.305Z,23.50
2023-05-22T06:54:34.283Z,23.38
2023-05-22T06:57:04.915Z,23.64
2023-05-22T06:59:33.252Z,23.68
2023-05-22T07:02:02.858Z,23.83
2023-05-22T07:04:33.177Z,23.89
2023-05-22T07:07:04.567Z,23.88
2023-05-22T07:09:33.376Z,23.80
2023-05-22T07:12:03.964Z,23.76
2023-05-22T07:14:35.604Z,23.76
2023-05-22T07:17:06.384Z,23.60
2023-05-22T07:19:36.945Z,23.86
2023-05-22T07:22:07.498Z,23.96
2023-05-22T07:24:36.251Z,23.89
2023-05-22T07:27:04.880Z,23.82
2023-05-22T07:29:33.292Z,23.93
2023-05-22T07:32:02.051Z,24.07
2023-05-22T07:34:33.612Z,24.27
2023-05-22T07:37:09.387Z,24.44
2023-05-22T07:39:37.722Z,24.85
2023-05-22T07:42:06.963Z,25.64
2023-05-22T07:44:35.623Z,26.29
2023-05-22T07:47:04.435Z,26.64
2023-05-22T07:49:32.641Z,26.91
2023-05-22T07:52:02.298Z,27.16
2023-05-22T07:54:31.052Z,27.72
2023-05-22T07:57:03.285Z,28.26
2023-05-22T07:59:33.933Z,28.26
2023-05-22T08:02:05.443Z,28.33
2023-05-22T08:04:34.051Z,28.60
2023-05-22T08:07:03.916Z,28.73
2023-05-22T08:09:32.486Z,28.94
2023-05-22T08:12:01.213Z,29.04
2023-05-22T08:14:29.669Z,28.74
2023-05-22T08:16:59.492Z,28.49
2023-05-22T08:19:27.918Z,28.26
2023-05-22T08:21:58.399Z,28.06
2023-05-22T08:24:30.737Z,28.15
2023-05-22T08:27:00.901Z,28.18
2023-05-22T08:29:30.692Z,28.09
2023-05-22T08:31:59.880Z,28.00
2023-05-22T08:34:28.632Z,27.67
2023-05-22T08:36:57.283Z,27.75
2023-05-22T08:39:25.511Z,27.56
2023-05-22T08:41:55.169Z,27.48
2023-05-22T08:44:25.351Z,27.60
2023-05-22T08:46:53.875Z,27.63
2023-05-22T08:49:24.235Z,27.27
2023-05-22T08:51:58.328Z,27.29
2023-05-22T08:54:28.769Z,27.24
2023-05-22T08:56:59.722Z,27.24
2023-05-22T08:59:28.890Z,27.01
2023-05-22T09:02:00.349Z,27.10
2023-05-22T09:04:29.095Z,26.79
2023-05-22T09:06:57.526Z,27.13
2023-05-22T09:09:25.886Z,27.24
2023-05-22T09:11:56.021Z,27.40
2023-05-22T09:14:26.472Z,27.41
2023-05-22T09:16:55.077Z,27.38
2023-05-22T09:19:23.394Z,27.61
2023-05-22T09:21:51.864Z,27.68
2023-05-22T09:24:22.267Z,27.23
2023-05-22T09:26:52.769Z,27.15
2023-05-22T09:29:21.098Z,27.31
2023-05-22T09:31:50.762Z,27.22
2023-05-22T09:34:19.306Z,26.81
2023-05-22T09:36:47.458Z,26.30
2023-05-22T09:39:15.649Z,26.39
2023-05-22T09:41:46.940Z,26.40
2023-05-22T09:44:15.663Z,26.36
2023-05-22T09:46:46.490Z,26.48
2023-05-22T09:49:17.240Z,26.54
2023-05-22T09:51:49.019Z,26.55
2023-05-22T09:54:19.206Z,26.60
2023-05-22T09:56:50.594Z,26.65
2023-05-22T09:59:22.664Z,26.96
2023-05-22T10:01:52.183Z,27.09
2023-05-22T10:04:25.860Z,27.29
2023-05-22T10:06:55.999Z,27.25
2023-05-22T10:09:34.214Z,27.39
2023-05-22T10:12:07.393Z,27.65
2023-05-22T10:14:39.050Z,27.42
2023-05-22T10:17:08.056Z,26.88
2023-05-22T10:19:40.455Z,26.85
2023-05-22T10:22:10.371Z,26.73
2023-05-22T10:24:41.282Z,26.87
2023-05-22T10:27:09.287Z,26.90
2023-05-22T10:29:43.407Z,26.72
2023-05-22T10:32:19.764Z,26.85
2023-05-22T10:34:55.870Z,27.39
2023-05-22T10:37:43.317Z,27.08
2023-05-22T10:40:16.226Z,26.90
2023-05-22T10:42:45.353Z,26.90
2023-05-22T10:45:15.140Z,27.04
2023-05-22T10:47:43.812Z,27.01
2023-05-22T10:50:13.593Z,26.66
2023-05-22T10:52:41.870Z,26.74
2023-05-22T10:55:11.548Z,26.96
2023-05-22T10:57:40.451Z,26.98
2023-05-22T11:00:14.319Z,26.68
2023-05-22T11:02:44.627Z,26.72
2023-05-22T11:05:38.796Z,26.60
2023-05-22T11:08:37.999Z,26.58
2023-05-22T11:11:14.186Z,26.66
2023-05-22T11:13:43.748Z,26.74
2023-05-22T11:16:12.520Z,27.05
2023-05-22T11:18:41.305Z,27.06
2023-05-22T11:21:14.039Z,26.73
2023-05-22T11:23:43.077Z,26.75
2023-05-22T11:26:22.768Z,26.96
2023-05-22T11:28:53.588Z,27.16
2023-05-22T11:31:24.093Z,27.14
2023-05-22T11:33:52.434Z,27.32
2023-05-22T11:36:25.414Z,27.01
2023-05-22T11:39:00.924Z,27.37
2023-05-22T11:41:34.311Z,26.92
2023-05-22T11:44:02.755Z,27.25
2023-05-22T11:46:31.689Z,27.44
2023-05-22T11:49:00.552Z,27.46
2023-05-22T11:51:30.727Z,27.39
2023-05-22T11:54:00.338Z,27.44
2023-05-22T11:56:28.527Z,27.30
2023-05-22T11:58:56.797Z,27.65
2023-05-22T12:01:24.883Z,27.79
2023-05-22T12:03:53.297Z,27.39
2023-05-22T12:06:21.607Z,27.26
2023-05-22T12:08:51.410Z,27.31
2023-05-22T12:11:20.515Z,27.36
2023-05-22T12:13:52.157Z,27.47
2023-05-22T12:16:22.038Z,27.63
2023-05-22T12:18:54.049Z,27.69
2023-05-22T12:21:22.497Z,27.48
2023-05-22T12:23:53.378Z,27.56
2023-05-22T12:26:22.305Z,27.72
2023-05-22T12:28:55.760Z,27.77
2023-05-22T12:31:24.429Z,27.64
2023-05-22T12:33:55.387Z,27.58
2023-05-22T12:36:33.346Z,27.61
2023-05-22T12:39:03.293Z,27.72
2023-05-22T12:41:33.704Z,27.55
2023-05-22T12:44:05.242Z,27.96
2023-05-22T12:46:34.093Z,27.62
2023-05-22T12:49:05.101Z,28.06
2023-05-22T12:51:34.179Z,27.91
2023-05-22T12:54:07.550Z,27.73
2023-05-22T12:56:35.953Z,27.73
2023-05-22T12:59:06.775Z,27.87
2023-05-22T13:01:35.546Z,27.64
2023-05-22T13:04:04.563Z,27.87
2023-05-22T13:06:32.732Z,27.78
2023-05-22T13:09:01.100Z,28.02
2023-05-22T13:11:31.214Z,28.20
2023-05-22T13:14:01.512Z,28.35
2023-05-22T13:16:29.782Z,28.37
2023-05-22T13:18:58.290Z,28.28
2023-05-22T13:21:27.126Z,28.11
2023-05-22T13:23:55.621Z,28.11
2023-05-22T13:26:24.150Z,27.95
2023-05-22T13:28:53.880Z,27.94
2023-05-22T13:31:22.045Z,27.47
2023-05-22T13:33:50.351Z,27.52
2023-05-22T13:36:19.169Z,27.65
2023-05-22T13:38:47.891Z,27.73
2023-05-22T13:41:18.890Z,27.61
2023-05-22T13:43:47.269Z,27.58
2023-05-22T13:46:18.329Z,27.25
2023-05-22T13:48:46.769Z,27.40
2023-05-22T13:51:14.958Z,27.20
2023-05-22T13:53:43.290Z,27.32
2023-05-22T13:56:11.674Z,27.22
2023-05-22T13:58:39.839Z,27.20
2023-05-22T14:01:08.203Z,27.33
2023-05-22T14:03:38.361Z,27.27
2023-05-22T14:06:07.144Z,27.46
2023-05-22T14:08:35.658Z,27.12
2023-05-22T14:11:04.164Z,27.11
2023-05-22T14:13:32.981Z,27.18
2023-05-22T14:16:01.341Z,27.05
2023-05-22T14:18:29.663Z,26.91
2023-05-22T14:20:59.615Z,27.10
2023-05-22T14:23:28.279Z,27.39
2023-05-22T14:25:56.586Z,27.58
2023-05-22T14:28:24.678Z,27.61
2023-05-22T14:30:52.901Z,27.60
2023-05-22T14:33:21.688Z,27.54
2023-05-22T14:35:51.691Z,27.31
2023-05-22T14:38:22.866Z,27.01
2023-05-22T14:40:54.092Z,26.96
2023-05-22T14:43:22.264Z,26.65
2023-05-22T14:45:51.080Z,26.79
2023-05-22T14:48:19.602Z,26.74
2023-05-22T14:50:48.618Z,26.92
2023-05-22T14:53:17.027Z,27.05
2023-05-22T14:55:46.664Z,27.18
2023-05-22T14:58:15.048Z,27.09
2023-05-22T15:00:45.166Z,27.17
2023-05-22T15:03:14.304Z,26.97
2023-05-22T15:05:43.236Z,27.24
2023-05-22T15:08:14.491Z,26.92
2023-05-22T15:10:42.615Z,26.89
2023-05-22T15:13:12.376Z,27.02
2023-05-22T15:15:41.901Z,27.30
2023-05-22T15:18:10.685Z,26.96
2023-05-22T15:20:39.183Z,26.76
2023-05-22T15:23:07.439Z,26.62
2023-05-22T15:25:36.807Z,26.57
2023-05-22T15:28:06.523Z,26.23
2023-05-22T15:30:42.192Z,26.35
2023-05-22T15:33:11.778Z,26.49
2023-05-22T15:35:40.999Z,26.41
2023-05-22T15:38:12.719Z,26.56
2023-05-22T15:40:41.849Z,26.45
2023-05-22T15:43:10.059Z,26.39
2023-05-22T15:45:40.347Z,26.11
2023-05-22T15:48:09.182Z,26.15
2023-05-22T15:50:37.316Z,26.20
2023-05-22T15:53:08.366Z,26.10
2023-05-22T15:55:36.660Z,26.33
2023-05-22T15:58:07.929Z,25.99
2023-05-22T16:00:41.365Z,25.99
2023-05-22T16:03:11.561Z,25.83
2023-05-22T16:05:40.478Z,25.98
2023-05-22T16:08:11.240Z,25.99
2023-05-22T16:10:41.685Z,25.78
2023-05-22T16:13:10.793Z,25.36
2023-05-22T16:15:40.336Z,25.38
2023-05-22T16:18:11.425Z,25.29
2023-05-22T16:20:40.628Z,25.36
2023-05-22T16:23:08.866Z,25.15
2023-05-22T16:25:37.123Z,25.11
2023-05-22T16:28:06.463Z,24.93
2023-05-22T16:30:34.747Z,24.99
2023-05-22T16:33:03.210Z,25.04
2023-05-22T16:35:34.225Z,25.06
2023-05-22T16:38:02.890Z,25.02
2023-05-22T16:40:31.245Z,25.22
2023-05-22T16:42:59.720Z,25.23
2023-05-22T16:45:28.184Z,25.22
2023-05-22T16:47:56.713Z,25.19
2023-05-22T16:50:24.964Z,25.27
2023-05-22T16:52:54.618Z,25.12
2023-05-22T16:55:23.020Z,25.25
2023-05-22T16:57:51.345Z,25.23
2023-05-22T17:00:20.907Z,25.43
2023-05-22T17:02:49.269Z,25.58
2023-05-22T17:05:18.013Z,25.53
2023-05-22T17:07:46.381Z,25.37
2023-05-22T17:10:15.867Z,25.34
2023-05-22T17:12:44.107Z,25.34
2023-05-22T17:15:13.592Z,25.46
2023-05-22T17:17:41.912Z,25.45
2023-05-22T17:20:13.463Z,25.45
2023-05-22T17:22:41.868Z,25.43
2023-05-22T17:25:13.836Z,25.33
2023-05-22T17:27:43.635Z,25.48
2023-05-22T17:30:12.848Z,25.30
2023-05-22T17:32:41.137Z,25.20
2023-05-22T17:35:09.828Z,25.24
2023-05-22T17:37:37.991Z,25.26
2023-05-22T17:40:07.107Z,25.35
2023-05-22T17:42:35.689Z,25.49
2023-05-22T17:45:05.825Z,25.36
2023-05-22T17:47:34.101Z,25.45
2023-05-22T17:50:05.574Z,25.21
2023-05-22T17:52:33.743Z,25.36
2023-05-22T17:55:02.370Z,25.39
2023-05-22T17:57:32.325Z,25.58
2023-05-22T18:00:01.302Z,25.50
2023-05-22T18:02:33.665Z,25.35
2023-05-22T18:05:02.627Z,25.31
2023-05-22T18:07:33.072Z,25.23
2023-05-22T18:10:01.868Z,25.36
2023-05-22T18:12:32.284Z,25.28
2023-05-22T18:15:01.049Z,25.25
2023-05-22T18:17:33.951Z,25.12
2023-05-22T18:20:06.447Z,25.18
2023-05-22T18:22:35.184Z,24.93
2023-05-22T18:25:04.234Z,24.89
2023-05-22T18:27:34.739Z,24.97
2023-05-22T18:30:04.251Z,25.00
2023-05-22T18:32:35.729Z,24.92
2023-05-22T18:35:04.722Z,24.86
2023-05-22T18:37:33.444Z,24.80
2023-05-22T18:40:02.177Z,24.73
2023-05-22T18:42:32.956Z,24.84
2023-05-22T18:45:01.317Z,24.71
2023-05-22T18:47:29.665Z,24.63
2023-05-22T18:49:59.592Z,24.57
2023-05-22T18:52:27.856Z,24.54
2023-05-22T18:54:56.129Z,24.56
2023-05-22T18:57:24.688Z,24.59
2023-05-22T18:59:53.164Z,24.55
2023-05-22T19:02:22.358Z,24.55
2023-05-22T19:04:52.141Z,24.67
2023-05-22T19:07:22.059Z,24.66
2023-05-22T19:09:50.720Z,24.63
2023-05-22T19:12:19.407Z,24.52
2023-05-22T19:14:49.900Z,24.62
2023-05-22T19:17:21.367Z,24.59
2023-05-22T19:19:49.842Z,24.53
2023-05-22T19:22:18.774Z,24.51
2023-05-22T19:24:49.190Z,24.50
2023-05-22T19:27:22.041Z,24.41
2023-05-22T19:29:50.379Z,24.54
2023-05-22T19:32:21.703Z,24.60
2023-05-22T19:34:50.070Z,24.59
2023-05-22T19:37:18.714Z,24.49
2023-05-22T19:39:48.638Z,24.51
2023-05-22T19:42:20.800Z,24.48
2023-05-22T19:44:49.411Z,24.52
2023-05-22T19:47:17.670Z,24.51
2023-05-22T19:49:45.857Z,24.51
2023-05-22T19:52:14.144Z,24.52
2023-05-22T19:54:42.282Z,24.53
2023-05-22T19:57:11.834Z,24.35
2023-05-22T19:59:43.150Z,24.35
2023-05-22T20:02:11.629Z,24.30
2023-05-22T20:04:43.491Z,24.21
2023-05-22T20:07:12.448Z,24.20
2023-05-22T20:09:40.586Z,24.25
2023-05-22T20:12:09.407Z,24.17
2023-05-22T20:14:39.629Z,24.23
2023-05-22T20:17:08.238Z,24.30
2023-05-22T20:19:36.511Z,24.15
2023-05-22T20:22:06.329Z,23.89
2023-05-22T20:24:35.694Z,23.70
2023-05-22T20:27:07.413Z,23.42
2023-05-22T20:29:35.784Z,23.27
2023-05-22T20:32:05.686Z,22.65
2023-05-22T20:34:34.076Z,22.66
2023-05-22T20:37:04.171Z,22.62
2023-05-22T20:39:32.772Z,22.68
2023-05-22T20:42:02.984Z,22.69
2023-05-22T20:44:34.767Z,22.69
2023-05-22T20:47:04.520Z,22.65
2023-05-22T20:49:34.927Z,22.54
2023-05-22T20:52:04.698Z,22.49
2023-05-22T20:54:34.838Z,22.46
2023-05-22T20:57:03.419Z,22.30
2023-05-22T20:59:33.497Z,22.09
2023-05-22T21:02:02.157Z,21.93
2023-05-22T21:04:34.659Z,21.93
2023-05-22T21:07:03.480Z,21.85
2023-05-22T21:09:33.636Z,21.82
2023-05-22T21:12:02.531Z,21.89
2023-05-22T21:14:31.038Z,21.95
2023-05-22T21:16:59.562Z,21.82
2023-05-22T21:19:28.016Z,21.79
2023-05-22T21:21:57.839Z,21.93
2023-05-22T21:24:29.548Z,21.83
2023-05-22T21:26:57.887Z,22.00
2023-05-22T21:29:26.648Z,21.92
2023-05-22T21:31:55.256Z,21.82
2023-05-22T21:34:23.800Z,21.83
2023-05-22T21:36:52.180Z,21.83
2023-05-22T21:39:21.779Z,21.90
2023-05-22T21:41:50.231Z,21.89
2023-05-22T21:44:18.674Z,21.79
2023-05-22T21:46:47.159Z,21.74
2023-05-22T21:49:16.011Z,21.70
2023-05-22T21:51:44.192Z,21.72
2023-05-22T21:54:12.595Z,21.78
2023-05-22T21:56:42.376Z,21.71
2023-05-22T21:59:10.628Z,21.62
2023-05-22T22:01:38.893Z,21.57
2023-05-22T22:04:07.290Z,21.54
2023-05-22T22:06:35.982Z,21.53
2023-05-22T22:09:04.211Z,21.36
2023-05-22T22:11:32.610Z,21.31
2023-05-22T22:14:05.123Z,21.11
2023-05-22T22:16:36.052Z,20.95
2023-05-22T22:19:04.998Z,20.75
2023-05-22T22:21:34.541Z,20.83
2023-05-22T22:24:02.777Z,20.94
2023-05-22T22:26:31.243Z,20.99
2023-05-22T22:29:04.020Z,21.07
2023-05-22T22:31:32.425Z,21.07
2023-05-22T22:34:05.687Z,21.12
2023-05-22T22:36:35.595Z,21.08
2023-05-22T22:39:04.035Z,21.05
2023-05-22T22:41:32.499Z,21.17
2023-05-22T22:44:04.961Z,21.11
2023-05-22T22:46:33.212Z,21.12
2023-05-22T22:49:02.447Z,21.06
2023-05-22T22:51:31.773Z,21.10
2023-05-22T22:54:00.121Z,21.04
2023-05-22T22:56:29.664Z,20.99
2023-05-22T22:58:58.252Z,21.02
2023-05-22T23:01:27.787Z,21.03
2023-05-22T23:03:56.124Z,21.06
2023-05-22T23:06:26.805Z,21.05
2023-05-22T23:08:55.590Z,21.03
2023-05-22T23:11:24.058Z,21.03
2023-05-22T23:13:52.778Z,20.96
2023-05-22T23:16:21.964Z,20.88
2023-05-22T23:18:51.810Z,20.95
2023-05-22T23:21:20.335Z,21.00
2023-05-22T23:23:48.660Z,20.99
2023-05-22T23:26:16.981Z,20.93
2023-05-22T23:28:45.234Z,20.94
2023-05-22T23:31:14.330Z,21.00
2023-05-22T23:33:42.696Z,21.05
2023-05-22T23:36:12.581Z,21.00
2023-05-22T23:38:42.597Z,20.97
2023-05-22T23:41:10.842Z,21.09
2023-05-22T23:43:39.105Z,21.03
2023-05-22T23:46:07.277Z,21.08
2023-05-22T23:48:35.652Z,21.09
2023-05-22T23:51:09.151Z,20.88
2023-05-22T23:53:39.115Z,20.89
2023-05-22T23:56:07.578Z,20.95
2023-05-22T23:58:35.828Z,20.97
